METAR Data
IDs: Format: Raw Decoded Include TAF

Data at: 0837 UTC 01 Aug 2021

EHWO 010825Z AUTO 24009KT 220V280 9999 SCT009 BKN011 BKN014 FEW015CB 18/15 Q1009 GRN